createdAt,value
2023-03-31T00:00:58.702Z,11.46
2023-03-31T00:01:57.928Z,11.45
2023-03-31T00:02:58.338Z,11.42
2023-03-31T00:03:59.633Z,11.42
2023-03-31T00:04:59.894Z,11.38
2023-03-31T00:05:57.886Z,11.35
2023-03-31T00:06:59.122Z,11.31
2023-03-31T00:07:58.445Z,11.30
2023-03-31T00:08:59.620Z,11.30
2023-03-31T00:10:10.374Z,11.27
2023-03-31T00:10:59.194Z,11.28
2023-03-31T00:11:58.410Z,11.27
2023-03-31T00:12:58.707Z,11.26
2023-03-31T00:13:57.959Z,11.26
2023-03-31T00:14:58.184Z,11.24
2023-03-31T00:15:59.399Z,11.26
2023-03-31T00:16:58.682Z,11.26
2023-03-31T00:17:58.907Z,11.23
2023-03-31T00:18:58.163Z,11.21
2023-03-31T00:19:59.343Z,11.21
2023-03-31T00:20:58.875Z,11.19
2023-03-31T00:21:57.941Z,11.19
2023-03-31T00:22:58.139Z,11.17
2023-03-31T00:23:59.384Z,11.16
2023-03-31T00:24:57.639Z,11.12
2023-03-31T00:25:57.862Z,11.13
2023-03-31T00:26:58.147Z,11.12
2023-03-31T00:27:58.432Z,11.12
2023-03-31T00:28:57.660Z,11.11
2023-03-31T00:29:57.962Z,11.11
2023-03-31T00:30:58.198Z,11.09
2023-03-31T00:31:58.469Z,11.12
2023-03-31T00:32:57.703Z,11.12
2023-03-31T00:33:57.909Z,11.16
2023-03-31T00:34:58.169Z,11.16
2023-03-31T00:35:58.418Z,11.16
2023-03-31T00:36:57.609Z,11.16
2023-03-31T00:37:57.927Z,11.12
2023-03-31T00:38:58.129Z,11.13
2023-03-31T00:39:57.333Z,11.12
2023-03-31T00:40:57.609Z,11.13
2023-03-31T00:41:57.849Z,11.16
2023-03-31T00:42:58.094Z,11.21
2023-03-31T00:43:57.327Z,11.20
2023-03-31T00:44:57.581Z,11.23
2023-03-31T00:45:57.900Z,11.23
2023-03-31T00:46:58.113Z,11.20
2023-03-31T00:47:57.392Z,11.21
2023-03-31T00:48:57.638Z,11.20
2023-03-31T00:49:57.851Z,11.21
2023-03-31T00:50:58.142Z,11.20
2023-03-31T00:51:57.387Z,11.20
2023-03-31T00:52:57.556Z,11.19
2023-03-31T00:53:58.796Z,11.17
2023-03-31T00:54:59.023Z,11.16
2023-03-31T00:55:58.251Z,11.20
2023-03-31T00:56:57.539Z,11.23
2023-03-31T00:57:57.772Z,11.23
2023-03-31T00:58:58.063Z,11.23
2023-03-31T00:59:57.289Z,11.24
2023-03-31T01:00:57.523Z,11.27
2023-03-31T01:01:57.773Z,11.30
2023-03-31T01:02:58.370Z,11.31
2023-03-31T01:03:57.327Z,11.30
2023-03-31T01:04:57.514Z,11.28
2023-03-31T01:05:58.754Z,11.27
2023-03-31T01:06:57.974Z,11.28
2023-03-31T01:07:57.272Z,11.28
2023-03-31T01:08:57.549Z,11.33
2023-03-31T01:09:57.774Z,11.35
2023-03-31T01:10:57.006Z,11.38
2023-03-31T01:11:57.269Z,11.38
2023-03-31T01:12:57.552Z,11.38
2023-03-31T01:13:57.832Z,11.35
2023-03-31T01:14:57.041Z,11.28
2023-03-31T01:15:57.311Z,11.23
2023-03-31T01:16:57.602Z,11.24
2023-03-31T01:17:57.956Z,11.24
2023-03-31T01:18:57.070Z,11.23
2023-03-31T01:19:57.365Z,11.24
2023-03-31T01:20:57.691Z,11.24
2023-03-31T01:21:56.815Z,11.26
2023-03-31T01:22:57.094Z,11.24
2023-03-31T01:23:58.340Z,11.26
2023-03-31T01:24:57.661Z,11.26
2023-03-31T01:25:56.883Z,11.28
2023-03-31T01:26:57.131Z,11.26
2023-03-31T01:27:57.406Z,11.26
2023-03-31T01:28:57.679Z,11.27
2023-03-31T01:29:56.912Z,11.26
2023-03-31T01:30:57.203Z,11.26
2023-03-31T01:31:57.469Z,11.28
2023-03-31T01:32:56.780Z,11.30
2023-03-31T01:33:56.929Z,11.30
2023-03-31T01:34:57.180Z,11.31
2023-03-31T01:35:57.529Z,11.35
2023-03-31T01:36:56.689Z,11.38
2023-03-31T01:37:56.935Z,11.36
2023-03-31T01:38:57.144Z,11.36
2023-03-31T01:39:57.399Z,11.36
2023-03-31T01:40:56.677Z,11.39
2023-03-31T01:41:56.901Z,11.42
2023-03-31T01:42:57.121Z,11.41
2023-03-31T01:43:57.361Z,11.45
2023-03-31T01:44:56.587Z,11.44
2023-03-31T01:45:56.823Z,11.44
2023-03-31T01:46:57.074Z,11.41
2023-03-31T01:47:57.457Z,11.41
2023-03-31T01:48:57.254Z,11.39
2023-03-31T01:49:56.855Z,11.36
2023-03-31T01:50:57.100Z,11.35
2023-03-31T01:51:57.399Z,11.33
2023-03-31T01:52:56.555Z,11.38
2023-03-31T01:53:56.776Z,11.38
2023-03-31T01:54:57.057Z,11.36
2023-03-31T01:55:57.270Z,11.36
2023-03-31T01:56:56.544Z,11.35
2023-03-31T01:57:56.752Z,11.35
2023-03-31T01:58:56.966Z,11.35
2023-03-31T01:59:57.217Z,11.36
2023-03-31T02:00:56.406Z,11.38
2023-03-31T02:01:56.678Z,11.38
2023-03-31T02:02:56.938Z,11.36
2023-03-31T02:03:57.142Z,11.36
2023-03-31T02:04:56.305Z,11.36
2023-03-31T02:05:56.542Z,11.35
2023-03-31T02:06:56.794Z,11.31
2023-03-31T02:07:57.022Z,11.31
2023-03-31T02:08:56.366Z,11.35
2023-03-31T02:09:56.441Z,11.36
2023-03-31T02:10:56.683Z,11.36
2023-03-31T02:11:56.292Z,11.38
2023-03-31T02:12:56.510Z,11.36
2023-03-31T02:13:56.798Z,11.35
2023-03-31T02:14:57.012Z,11.35
2023-03-31T02:15:56.250Z,11.33
2023-03-31T02:16:56.521Z,11.35
2023-03-31T02:17:56.873Z,11.31
2023-03-31T02:18:57.069Z,11.33
2023-03-31T02:19:56.277Z,11.33
2023-03-31T02:20:56.536Z,11.31
2023-03-31T02:21:57.791Z,11.30
2023-03-31T02:22:56.950Z,11.28
2023-03-31T02:23:57.230Z,11.24
2023-03-31T02:24:56.604Z,11.24
2023-03-31T02:25:56.799Z,11.21
2023-03-31T02:26:56.947Z,11.19
2023-03-31T02:27:57.216Z,11.13
2023-03-31T02:28:56.499Z,11.13
2023-03-31T02:29:57.227Z,11.17
2023-03-31T02:30:55.967Z,11.16
2023-03-31T02:31:56.347Z,11.12
2023-03-31T02:32:57.498Z,11.13
2023-03-31T02:33:56.782Z,11.12
2023-03-31T02:34:55.974Z,11.12
2023-03-31T02:35:56.326Z,11.11
2023-03-31T02:36:56.526Z,11.09
2023-03-31T02:37:56.812Z,11.09
2023-03-31T02:38:56.010Z,11.09
2023-03-31T02:39:56.299Z,11.11
2023-03-31T02:40:56.620Z,11.11
2023-03-31T02:41:55.809Z,11.12
2023-03-31T02:42:56.083Z,11.16
2023-03-31T02:43:57.304Z,11.12
2023-03-31T02:44:57.605Z,11.09
2023-03-31T02:45:56.860Z,11.06
2023-03-31T02:46:56.188Z,11.08
2023-03-31T02:47:57.421Z,11.03
2023-03-31T02:48:56.634Z,11.03
2023-03-31T02:49:56.001Z,11.03
2023-03-31T02:50:56.246Z,11.02
2023-03-31T02:51:56.919Z,11.01
2023-03-31T02:52:55.778Z,10.99
2023-03-31T02:53:56.077Z,11.01
2023-03-31T02:54:57.307Z,10.99
2023-03-31T02:55:55.551Z,10.98
2023-03-31T02:56:55.882Z,10.98
2023-03-31T02:57:56.161Z,10.95
2023-03-31T02:58:56.398Z,10.99
2023-03-31T02:59:55.634Z,10.98
2023-03-31T03:00:56.069Z,10.99
2023-03-31T03:01:56.181Z,10.94
2023-03-31T03:02:56.542Z,10.91
2023-03-31T03:03:55.594Z,10.88
2023-03-31T03:04:55.837Z,10.83
2023-03-31T03:05:56.104Z,10.84
2023-03-31T03:06:56.373Z,10.84
2023-03-31T03:07:55.567Z,10.80
2023-03-31T03:08:55.866Z,10.76
2023-03-31T03:09:56.108Z,10.73
2023-03-31T03:10:55.331Z,10.76
2023-03-31T03:11:56.628Z,10.76
2023-03-31T03:12:55.865Z,10.78
2023-03-31T03:13:56.138Z,10.80
2023-03-31T03:14:55.338Z,10.76
2023-03-31T03:15:55.590Z,10.80
2023-03-31T03:16:55.926Z,10.76
2023-03-31T03:17:56.110Z,10.78
2023-03-31T03:18:56.269Z,10.73
2023-03-31T03:19:55.579Z,10.75
2023-03-31T03:20:55.838Z,10.72
2023-03-31T03:21:56.105Z,10.69
2023-03-31T03:22:55.323Z,10.68
2023-03-31T03:23:55.601Z,10.63
2023-03-31T03:24:55.925Z,10.65
2023-03-31T03:25:56.148Z,10.63
2023-03-31T03:26:55.359Z,10.65
2023-03-31T03:27:55.610Z,10.66
2023-03-31T03:28:55.933Z,10.70
2023-03-31T03:29:56.163Z,10.69
2023-03-31T03:30:55.416Z,10.70
2023-03-31T03:31:55.654Z,10.72
2023-03-31T03:32:56.060Z,10.75
2023-03-31T03:33:55.189Z,10.78
2023-03-31T03:34:55.469Z,10.80
2023-03-31T03:35:55.718Z,10.76
2023-03-31T03:36:55.971Z,10.73
2023-03-31T03:37:55.224Z,10.68
2023-03-31T03:38:55.486Z,10.60
2023-03-31T03:39:55.773Z,10.57
2023-03-31T03:40:55.024Z,10.51
2023-03-31T03:41:55.322Z,10.46
2023-03-31T03:42:55.598Z,10.43
2023-03-31T03:43:55.860Z,10.38
2023-03-31T03:44:55.076Z,10.31
2023-03-31T03:45:55.433Z,10.26
2023-03-31T03:46:55.635Z,10.20
2023-03-31T03:47:56.861Z,10.16
2023-03-31T03:48:55.110Z,10.13
2023-03-31T03:49:55.365Z,10.10
2023-03-31T03:50:55.709Z,10.07
2023-03-31T03:51:54.905Z,10.11
2023-03-31T03:52:55.159Z,10.13
2023-03-31T03:53:55.469Z,10.10
2023-03-31T03:54:55.763Z,10.17
2023-03-31T03:55:55.950Z,10.20
2023-03-31T03:56:55.458Z,10.25
2023-03-31T03:57:55.611Z,10.29
2023-03-31T03:58:54.815Z,10.34
2023-03-31T03:59:55.066Z,10.36
2023-03-31T04:00:55.326Z,10.42
2023-03-31T04:01:55.662Z,10.46
2023-03-31T04:02:54.872Z,10.49
2023-03-31T04:03:55.139Z,10.52
2023-03-31T04:04:56.393Z,10.55
2023-03-31T04:05:55.616Z,10.54
2023-03-31T04:06:54.852Z,10.55
2023-03-31T04:07:55.158Z,10.60
2023-03-31T04:08:55.373Z,10.58
2023-03-31T04:09:54.638Z,10.60
2023-03-31T04:10:54.894Z,10.58
2023-03-31T04:11:55.169Z,10.62
2023-03-31T04:12:55.569Z,10.65
2023-03-31T04:13:54.696Z,10.65
2023-03-31T04:14:54.996Z,10.63
2023-03-31T04:15:55.251Z,10.62
2023-03-31T04:16:55.472Z,10.60
2023-03-31T04:17:55.652Z,10.57
2023-03-31T04:18:55.013Z,10.54
2023-03-31T04:19:55.202Z,10.54
2023-03-31T04:20:54.410Z,10.51
2023-03-31T04:21:54.685Z,10.51
2023-03-31T04:22:54.964Z,10.49
2023-03-31T04:23:55.207Z,10.49
2023-03-31T04:24:54.421Z,10.44
2023-03-31T04:25:54.667Z,10.43
2023-03-31T04:26:54.965Z,10.42
2023-03-31T04:27:55.285Z,10.39
2023-03-31T04:28:54.450Z,10.36
2023-03-31T04:29:54.769Z,10.35
2023-03-31T04:30:54.961Z,10.32
2023-03-31T04:31:56.196Z,10.28
2023-03-31T04:32:54.470Z,10.25
2023-03-31T04:33:54.705Z,10.20
2023-03-31T04:34:54.982Z,10.20
2023-03-31T04:35:55.235Z,10.18
2023-03-31T04:36:55.393Z,10.17
2023-03-31T04:37:55.653Z,10.16
2023-03-31T04:38:55.097Z,10.14
2023-03-31T04:39:54.190Z,10.11
2023-03-31T04:40:54.453Z,10.10
2023-03-31T04:41:54.768Z,10.09
2023-03-31T04:42:54.969Z,10.09
2023-03-31T04:43:54.228Z,10.06
2023-03-31T04:44:54.529Z,10.02
2023-03-31T04:45:54.798Z,10.04
2023-03-31T04:46:55.052Z,10.04
2023-03-31T04:47:54.320Z,10.04
2023-03-31T04:48:54.533Z,10.02
2023-03-31T04:49:54.844Z,9.99
2023-03-31T04:50:55.046Z,10.02
2023-03-31T04:51:54.294Z,9.96
2023-03-31T04:52:54.509Z,9.92
2023-03-31T04:53:54.759Z,9.91
2023-03-31T04:54:54.955Z,9.91
2023-03-31T04:55:54.268Z,9.92
2023-03-31T04:56:55.392Z,9.95
2023-03-31T04:57:54.760Z,10.01
2023-03-31T04:58:54.948Z,10.09
2023-03-31T04:59:54.285Z,10.09
2023-03-31T05:00:54.900Z,10.07
2023-03-31T05:01:55.745Z,10.10
2023-03-31T05:02:54.179Z,10.09
2023-03-31T05:03:54.293Z,10.11
2023-03-31T05:04:54.563Z,10.13
2023-03-31T05:05:54.844Z,10.11
2023-03-31T05:06:54.001Z,10.09
2023-03-31T05:07:54.279Z,10.09
2023-03-31T05:08:54.605Z,10.11
2023-03-31T05:09:55.691Z,10.13
2023-03-31T05:10:54.914Z,10.16
2023-03-31T05:11:54.221Z,10.16
2023-03-31T05:12:54.502Z,10.17
2023-03-31T05:13:54.769Z,10.17
2023-03-31T05:14:54.928Z,10.13
2023-03-31T05:15:54.242Z,10.24
2023-03-31T05:16:54.597Z,10.29
2023-03-31T05:17:53.881Z,10.29
2023-03-31T05:18:53.990Z,10.28
2023-03-31T05:19:54.228Z,10.28
2023-03-31T05:20:54.559Z,10.25
2023-03-31T05:21:53.691Z,10.26
2023-03-31T05:22:53.985Z,10.28
2023-03-31T05:23:54.299Z,10.25
2023-03-31T05:24:55.391Z,10.26
2023-03-31T05:25:54.649Z,10.32
2023-03-31T05:26:53.955Z,10.31
2023-03-31T05:27:54.250Z,10.28
2023-03-31T05:28:54.508Z,10.31
2023-03-31T05:29:53.775Z,10.32
2023-03-31T05:30:54.047Z,10.34
2023-03-31T05:31:54.431Z,10.32
2023-03-31T05:32:53.628Z,10.29
2023-03-31T05:33:53.832Z,10.29
2023-03-31T05:34:55.056Z,10.28
2023-03-31T05:35:55.367Z,10.28
2023-03-31T05:36:53.612Z,10.25
2023-03-31T05:37:53.866Z,10.28
2023-03-31T05:38:54.193Z,10.26
2023-03-31T05:39:54.397Z,10.28
2023-03-31T05:40:53.641Z,10.34
2023-03-31T05:41:53.915Z,10.39
2023-03-31T05:42:54.184Z,10.43
2023-03-31T05:43:53.434Z,10.44
2023-03-31T05:44:53.749Z,10.39
2023-03-31T05:45:53.988Z,10.39
2023-03-31T05:46:54.238Z,10.43
2023-03-31T05:47:53.559Z,10.44
2023-03-31T05:48:53.773Z,10.46
2023-03-31T05:49:54.023Z,10.38
2023-03-31T05:50:54.318Z,10.35
2023-03-31T05:51:53.527Z,10.32
2023-03-31T05:52:53.785Z,10.29
2023-03-31T05:53:54.089Z,10.26
2023-03-31T05:54:53.314Z,10.26
2023-03-31T05:55:53.563Z,10.24
2023-03-31T05:56:53.856Z,10.18
2023-03-31T05:57:54.183Z,10.14
2023-03-31T05:58:53.352Z,10.09
2023-03-31T05:59:53.584Z,10.06
2023-03-31T06:00:53.967Z,9.98
2023-03-31T06:01:54.184Z,9.96
2023-03-31T06:02:53.400Z,9.92
2023-03-31T06:03:53.832Z,9.91
2023-03-31T06:04:53.885Z,9.86
2023-03-31T06:05:54.042Z,9.88
2023-03-31T06:06:54.335Z,9.86
2023-03-31T06:07:54.600Z,9.81
2023-03-31T06:08:53.888Z,9.80
2023-03-31T06:09:53.144Z,9.80
2023-03-31T06:10:54.372Z,9.77
2023-03-31T06:11:53.633Z,9.74
2023-03-31T06:12:54.948Z,9.75
2023-03-31T06:13:53.119Z,9.74
2023-03-31T06:14:53.422Z,9.74
2023-03-31T06:15:53.747Z,9.75
2023-03-31T06:16:55.486Z,9.74
2023-03-31T06:17:53.132Z,9.74
2023-03-31T06:18:53.370Z,9.73
2023-03-31T06:19:53.723Z,9.71
2023-03-31T06:20:52.876Z,9.74
2023-03-31T06:21:54.100Z,9.71
2023-03-31T06:22:54.431Z,9.73
2023-03-31T06:23:54.635Z,9.73
2023-03-31T06:24:52.900Z,9.74
2023-03-31T06:25:53.316Z,9.77
2023-03-31T06:26:54.018Z,9.77
2023-03-31T06:27:53.632Z,9.77
2023-03-31T06:28:52.888Z,9.77
2023-03-31T06:29:54.060Z,9.80
2023-03-31T06:30:53.397Z,9.80
2023-03-31T06:31:54.649Z,9.78
2023-03-31T06:32:52.914Z,9.80
2023-03-31T06:33:53.089Z,9.78
2023-03-31T06:34:53.346Z,9.80
2023-03-31T06:35:53.665Z,9.80
2023-03-31T06:36:53.143Z,9.80
2023-03-31T06:37:54.087Z,9.80
2023-03-31T06:38:53.384Z,9.83
2023-03-31T06:39:53.632Z,9.85
2023-03-31T06:40:52.815Z,9.85
2023-03-31T06:41:53.168Z,9.86
2023-03-31T06:42:53.346Z,9.85
2023-03-31T06:43:52.604Z,9.88
2023-03-31T06:44:52.835Z,9.86
2023-03-31T06:45:54.219Z,9.86
2023-03-31T06:46:53.381Z,9.85
2023-03-31T06:47:52.716Z,9.85
2023-03-31T06:48:52.793Z,9.85
2023-03-31T06:49:53.202Z,9.85
2023-03-31T06:50:53.362Z,9.86
2023-03-31T06:51:53.511Z,9.86
2023-03-31T06:52:52.893Z,9.86
2023-03-31T06:53:53.090Z,9.86
2023-03-31T06:54:53.383Z,9.85
2023-03-31T06:55:52.541Z,9.86
2023-03-31T06:56:52.909Z,9.85
2023-03-31T06:57:53.116Z,9.86
2023-03-31T06:58:53.471Z,9.89
2023-03-31T06:59:52.603Z,9.91
2023-03-31T07:00:53.003Z,9.92
2023-03-31T07:01:53.132Z,9.92
2023-03-31T07:02:53.413Z,9.93
2023-03-31T07:03:52.718Z,9.98
2023-03-31T07:04:53.832Z,9.96
2023-03-31T07:05:54.092Z,9.95
2023-03-31T07:06:52.338Z,9.98
2023-03-31T07:07:52.594Z,10.01
2023-03-31T07:08:52.966Z,10.01
2023-03-31T07:09:56.175Z,10.04
2023-03-31T07:10:52.293Z,10.02
2023-03-31T07:11:52.585Z,10.02
2023-03-31T07:12:53.791Z,10.06
2023-03-31T07:13:53.080Z,10.07
2023-03-31T07:14:52.374Z,10.07
2023-03-31T07:15:52.617Z,10.10
2023-03-31T07:16:53.329Z,10.13
2023-03-31T07:17:53.117Z,10.18
2023-03-31T07:18:52.376Z,10.25
2023-03-31T07:19:52.615Z,10.28
2023-03-31T07:20:53.869Z,10.32
2023-03-31T07:21:53.064Z,10.31
2023-03-31T07:22:53.362Z,10.35
2023-03-31T07:23:52.693Z,10.35
2023-03-31T07:24:52.939Z,10.38
2023-03-31T07:25:52.220Z,10.42
2023-03-31T07:26:52.398Z,10.42
2023-03-31T07:27:52.778Z,10.46
2023-03-31T07:28:53.867Z,10.49
2023-03-31T07:29:52.193Z,10.51
2023-03-31T07:30:52.473Z,10.49
2023-03-31T07:31:52.666Z,10.51
2023-03-31T07:32:52.926Z,10.47
2023-03-31T07:33:52.126Z,10.51
2023-03-31T07:34:52.356Z,10.54
2023-03-31T07:36:03.822Z,10.55
2023-03-31T07:36:53.887Z,10.58
2023-03-31T07:37:52.048Z,10.63
2023-03-31T07:38:53.275Z,10.66
2023-03-31T07:39:52.621Z,10.68
2023-03-31T07:41:05.730Z,10.70
2023-03-31T07:41:53.070Z,10.75
2023-03-31T07:42:52.507Z,10.80
2023-03-31T07:43:52.629Z,10.87
2023-03-31T07:44:51.849Z,10.93
2023-03-31T07:45:52.170Z,10.95
2023-03-31T07:46:52.360Z,10.91
2023-03-31T07:47:52.647Z,10.98
2023-03-31T07:48:51.802Z,10.98
2023-03-31T07:49:52.058Z,11.01
2023-03-31T07:50:52.299Z,10.99
2023-03-31T07:51:52.521Z,11.06
2023-03-31T07:52:52.678Z,11.05
2023-03-31T07:53:51.968Z,11.09
2023-03-31T07:54:53.187Z,11.06
2023-03-31T07:55:53.519Z,11.11
2023-03-31T07:56:52.117Z,11.13
2023-03-31T07:57:52.916Z,11.12
2023-03-31T07:58:56.084Z,11.12
2023-03-31T07:59:53.432Z,11.11
2023-03-31T08:00:52.695Z,11.13
2023-03-31T08:01:52.959Z,11.11
2023-03-31T08:02:52.232Z,11.09
2023-03-31T08:03:52.482Z,11.11
2023-03-31T08:04:52.608Z,11.12
2023-03-31T08:05:52.849Z,11.13
2023-03-31T08:06:52.231Z,11.16
2023-03-31T08:07:52.518Z,11.19
2023-03-31T08:08:51.674Z,11.24
2023-03-31T08:09:52.786Z,11.27
2023-03-31T08:10:52.130Z,11.33
2023-03-31T08:11:52.360Z,11.39
2023-03-31T08:12:51.644Z,11.44
2023-03-31T08:13:52.046Z,11.46
2023-03-31T08:14:52.092Z,11.53
2023-03-31T08:15:52.415Z,11.53
2023-03-31T08:16:51.643Z,11.51
2023-03-31T08:17:51.884Z,11.53
2023-03-31T08:18:52.118Z,11.59
2023-03-31T08:19:52.315Z,11.64
2023-03-31T08:20:51.515Z,11.67
2023-03-31T08:21:51.951Z,11.69
2023-03-31T08:22:52.974Z,11.74
2023-03-31T08:23:52.244Z,11.74
2023-03-31T08:24:51.460Z,11.77
2023-03-31T08:25:52.702Z,11.78
2023-03-31T08:26:53.937Z,11.81
2023-03-31T08:27:52.224Z,11.82
2023-03-31T08:28:51.457Z,11.85
2023-03-31T08:29:51.741Z,11.84
2023-03-31T08:30:51.951Z,11.85
2023-03-31T08:31:52.204Z,11.85
2023-03-31T08:32:51.467Z,11.84
2023-03-31T08:33:52.659Z,11.84
2023-03-31T08:34:51.958Z,11.87
2023-03-31T08:35:52.182Z,11.88
2023-03-31T08:36:52.415Z,11.90
2023-03-31T08:37:52.624Z,11.93
2023-03-31T08:38:52.848Z,11.93
2023-03-31T08:39:52.046Z,11.90
2023-03-31T08:40:52.280Z,11.90
2023-03-31T08:41:51.509Z,11.96
2023-03-31T08:42:52.824Z,11.96
2023-03-31T08:43:52.036Z,11.94
2023-03-31T08:44:52.178Z,11.97
2023-03-31T08:45:52.236Z,11.96
2023-03-31T08:46:52.074Z,12.00
2023-03-31T08:47:52.908Z,12.01
2023-03-31T08:48:52.114Z,12.03
2023-03-31T08:49:51.360Z,12.03
2023-03-31T08:50:52.514Z,12.05
2023-03-31T08:51:51.917Z,12.05
2023-03-31T08:52:51.952Z,12.05
2023-03-31T08:53:51.217Z,12.04
2023-03-31T08:54:52.412Z,12.04
2023-03-31T08:55:52.717Z,12.05
2023-03-31T08:56:51.025Z,12.07
2023-03-31T08:57:52.135Z,12.08
2023-03-31T08:58:52.377Z,12.11
2023-03-31T08:59:52.644Z,12.08
2023-03-31T09:00:50.936Z,12.08
2023-03-31T09:01:56.232Z,12.12
2023-03-31T09:02:52.405Z,12.15
2023-03-31T09:03:52.629Z,12.19
2023-03-31T09:04:51.892Z,12.21
2023-03-31T09:06:00.203Z,12.22
2023-03-31T09:06:52.247Z,12.23
2023-03-31T09:07:51.527Z,12.34
2023-03-31T09:08:51.688Z,12.34
2023-03-31T09:09:51.909Z,12.38
2023-03-31T09:10:51.186Z,12.38
2023-03-31T09:11:53.861Z,12.48
2023-03-31T09:12:51.630Z,12.55
2023-03-31T09:13:51.845Z,12.56
2023-03-31T09:14:51.056Z,12.55
2023-03-31T09:15:51.388Z,12.58
2023-03-31T09:16:52.248Z,12.70
2023-03-31T09:17:50.870Z,12.80
2023-03-31T09:18:51.968Z,12.88
2023-03-31T09:19:51.358Z,12.91
2023-03-31T09:20:52.488Z,13.04
2023-03-31T09:21:51.711Z,13.14
2023-03-31T09:22:51.008Z,13.19
2023-03-31T09:23:51.333Z,13.13
2023-03-31T09:24:51.476Z,13.07
2023-03-31T09:25:51.603Z,13.07
2023-03-31T09:26:51.722Z,13.06
2023-03-31T09:27:51.201Z,13.09
2023-03-31T09:28:51.353Z,13.13
2023-03-31T09:29:51.550Z,13.12
2023-03-31T09:30:51.879Z,13.09
2023-03-31T09:31:52.535Z,13.09
2023-03-31T09:32:51.361Z,13.12
2023-03-31T09:33:50.504Z,13.10
2023-03-31T09:34:50.770Z,13.12
2023-03-31T09:35:52.201Z,13.14
2023-03-31T09:36:51.392Z,13.10
2023-03-31T09:37:51.449Z,13.12
2023-03-31T09:38:50.728Z,13.07
2023-03-31T09:39:51.026Z,13.04
2023-03-31T09:40:52.175Z,13.04
2023-03-31T09:41:51.628Z,13.01
2023-03-31T09:42:50.702Z,13.01
2023-03-31T09:43:50.892Z,13.04
2023-03-31T09:44:51.148Z,13.04
2023-03-31T09:46:07.741Z,13.03
2023-03-31T09:46:51.691Z,13.06
2023-03-31T09:47:51.861Z,13.06
2023-03-31T09:48:52.062Z,13.12
2023-03-31T09:49:53.616Z,13.07
2023-03-31T09:50:51.437Z,13.12
2023-03-31T09:51:50.793Z,13.13
2023-03-31T09:52:51.996Z,13.12
2023-03-31T09:53:51.087Z,13.07
2023-03-31T09:54:51.435Z,13.01
2023-03-31T09:55:51.573Z,12.94
2023-03-31T09:56:51.914Z,12.85
2023-03-31T09:57:50.033Z,12.79
2023-03-31T09:58:50.612Z,12.74
2023-03-31T09:59:51.424Z,12.62
2023-03-31T10:00:51.660Z,12.67
2023-03-31T10:01:52.420Z,12.52
2023-03-31T10:02:51.111Z,12.37
2023-03-31T10:03:51.128Z,12.30
2023-03-31T10:04:50.291Z,12.21
2023-03-31T10:05:50.585Z,12.18
2023-03-31T10:06:51.709Z,12.16
2023-03-31T10:07:50.922Z,12.16
2023-03-31T10:08:50.094Z,12.22
2023-03-31T10:09:51.352Z,12.22
2023-03-31T10:10:51.414Z,12.22
2023-03-31T10:11:52.638Z,12.26
2023-03-31T10:12:49.825Z,12.26
2023-03-31T10:13:50.016Z,12.29
2023-03-31T10:14:50.259Z,12.29
2023-03-31T10:15:50.522Z,12.30
2023-03-31T10:16:51.591Z,12.30
2023-03-31T10:18:50.058Z,12.33
2023-03-31T10:19:51.195Z,12.37
2023-03-31T10:20:51.426Z,12.31
2023-03-31T10:21:52.081Z,12.33
2023-03-31T10:22:50.847Z,12.36
2023-03-31T10:23:51.029Z,12.36
2023-03-31T10:24:51.245Z,12.40
2023-03-31T10:25:51.472Z,12.46
2023-03-31T10:26:49.683Z,12.43
2023-03-31T10:27:50.947Z,12.51
2023-03-31T10:28:50.125Z,12.49
2023-03-31T10:29:50.319Z,12.51
2023-03-31T10:30:50.526Z,12.51
2023-03-31T10:31:49.750Z,12.51
2023-03-31T10:32:53.331Z,12.51
2023-03-31T10:33:51.108Z,12.54
2023-03-31T10:34:51.236Z,12.52
2023-03-31T10:35:50.565Z,12.51
2023-03-31T10:36:52.741Z,12.52
2023-03-31T10:37:49.960Z,12.48
2023-03-31T10:38:50.173Z,12.48
2023-03-31T10:39:51.316Z,12.49
2023-03-31T10:40:49.624Z,12.52
2023-03-31T10:41:49.799Z,12.55
2023-03-31T10:42:50.963Z,12.59
2023-03-31T10:43:51.177Z,12.67
2023-03-31T10:44:49.435Z,12.74
2023-03-31T10:45:50.614Z,12.81
2023-03-31T10:46:50.856Z,12.85
2023-03-31T10:47:50.138Z,12.84
2023-03-31T10:48:50.304Z,12.91
2023-03-31T10:49:49.540Z,12.99
2023-03-31T10:50:49.681Z,13.01
2023-03-31T10:51:50.898Z,13.03
2023-03-31T10:52:50.152Z,13.06
2023-03-31T10:53:49.349Z,13.06
2023-03-31T10:54:49.627Z,12.99
2023-03-31T10:55:49.867Z,12.88
2023-03-31T10:56:52.697Z,12.85
2023-03-31T10:57:50.289Z,12.74
2023-03-31T10:59:04.213Z,12.67
2023-03-31T10:59:50.923Z,12.61
2023-03-31T11:00:50.024Z,12.59
2023-03-31T11:01:49.332Z,12.63
2023-03-31T11:02:49.467Z,12.70
2023-03-31T11:03:50.802Z,12.67
2023-03-31T11:04:50.897Z,12.69
2023-03-31T11:05:50.238Z,12.71
2023-03-31T11:06:50.280Z,12.74
2023-03-31T11:07:50.538Z,12.81
2023-03-31T11:08:49.817Z,12.88
2023-03-31T11:09:49.984Z,12.98
2023-03-31T11:10:49.180Z,13.07
2023-03-31T11:11:49.405Z,13.14
2023-03-31T11:12:50.559Z,13.27
2023-03-31T11:13:49.822Z,13.43
2023-03-31T11:14:50.005Z,13.55
2023-03-31T11:15:49.237Z,13.63
2023-03-31T11:16:50.488Z,13.73
2023-03-31T11:17:50.643Z,13.75
2023-03-31T11:18:49.900Z,13.84
2023-03-31T11:19:49.053Z,13.86
2023-03-31T11:20:50.260Z,13.86
2023-03-31T11:21:49.495Z,13.84
2023-03-31T11:22:49.742Z,13.79
2023-03-31T11:23:48.918Z,13.69
2023-03-31T11:24:49.100Z,13.63
2023-03-31T11:25:49.325Z,13.57
2023-03-31T11:26:50.672Z,13.53
2023-03-31T11:27:50.801Z,13.50
2023-03-31T11:28:48.980Z,13.53
2023-03-31T11:29:49.208Z,13.53
2023-03-31T11:30:49.459Z,13.53
2023-03-31T11:31:50.701Z,13.54
2023-03-31T11:32:49.831Z,13.51
2023-03-31T11:33:49.075Z,13.47
2023-03-31T11:34:50.233Z,13.47
2023-03-31T11:35:50.488Z,13.46
2023-03-31T11:36:49.752Z,13.46
2023-03-31T11:37:48.889Z,13.50
2023-03-31T11:38:49.098Z,13.54
2023-03-31T11:39:50.268Z,13.61
2023-03-31T11:40:49.526Z,13.63
2023-03-31T11:41:48.698Z,13.61
2023-03-31T11:42:48.941Z,13.61
2023-03-31T11:43:49.123Z,13.63
2023-03-31T11:44:50.446Z,13.66
2023-03-31T11:45:50.540Z,13.69
2023-03-31T11:46:49.660Z,13.71
2023-03-31T11:47:48.978Z,13.66
2023-03-31T11:48:50.199Z,13.62
2023-03-31T11:49:49.410Z,13.57
2023-03-31T11:50:48.620Z,13.55
2023-03-31T11:51:48.904Z,13.55
2023-03-31T11:52:50.064Z,13.57
2023-03-31T11:53:49.467Z,13.55
2023-03-31T11:54:48.478Z,13.54
2023-03-31T11:55:48.713Z,13.51
2023-03-31T11:56:49.931Z,13.50
2023-03-31T11:57:50.135Z,13.44
2023-03-31T11:58:50.321Z,13.39
2023-03-31T11:59:48.581Z,13.38
2023-03-31T12:00:48.814Z,13.39
2023-03-31T12:01:49.013Z,13.38
2023-03-31T12:02:50.267Z,13.38
2023-03-31T12:03:48.470Z,13.32
2023-03-31T12:04:48.673Z,13.28
2023-03-31T12:05:49.036Z,13.24
2023-03-31T12:06:49.137Z,13.21
2023-03-31T12:07:48.381Z,13.17
2023-03-31T12:08:48.579Z,13.13
2023-03-31T12:09:48.828Z,13.10
2023-03-31T12:10:49.148Z,13.09
2023-03-31T12:11:48.300Z,13.04
2023-03-31T12:12:49.532Z,12.84
2023-03-31T12:13:48.802Z,12.51
2023-03-31T12:14:49.171Z,12.23
2023-03-31T12:15:48.261Z,12.03
2023-03-31T12:16:49.528Z,11.82
2023-03-31T12:17:48.836Z,11.59
2023-03-31T12:18:49.973Z,11.38
2023-03-31T12:19:49.239Z,11.24
2023-03-31T12:20:49.369Z,11.13
2023-03-31T12:21:49.666Z,11.02
2023-03-31T12:22:48.931Z,10.93
2023-03-31T12:23:48.148Z,10.83
2023-03-31T12:24:48.429Z,10.78
2023-03-31T12:25:49.657Z,10.68
2023-03-31T12:26:49.050Z,10.65
2023-03-31T12:27:49.164Z,10.65
2023-03-31T12:28:48.521Z,10.65
2023-03-31T12:29:48.704Z,10.65
2023-03-31T12:30:48.960Z,10.66
2023-03-31T12:31:49.241Z,10.63
2023-03-31T12:32:49.682Z,10.63
2023-03-31T12:33:49.713Z,10.65
2023-03-31T12:34:48.025Z,10.68
2023-03-31T12:35:49.303Z,10.72
2023-03-31T12:36:48.550Z,10.75
2023-03-31T12:37:49.822Z,10.80
2023-03-31T12:38:49.832Z,10.86
2023-03-31T12:39:49.326Z,10.91
2023-03-31T12:40:49.587Z,10.95
2023-03-31T12:41:48.800Z,11.01
2023-03-31T12:42:49.103Z,11.03
2023-03-31T12:43:49.395Z,11.08
2023-03-31T12:44:49.637Z,11.13
2023-03-31T12:45:47.970Z,11.17
2023-03-31T12:46:48.223Z,11.19
2023-03-31T12:47:49.416Z,11.20
2023-03-31T12:48:48.732Z,11.24
2023-03-31T12:49:48.892Z,11.24
2023-03-31T12:50:48.232Z,11.26
2023-03-31T12:51:48.514Z,11.27
2023-03-31T12:52:47.749Z,11.30
2023-03-31T12:53:48.012Z,11.31
2023-03-31T12:54:49.269Z,11.33
2023-03-31T12:55:49.526Z,11.35
2023-03-31T12:56:47.789Z,11.36